sensor_id;sensor_type;location;lat;lon;timestamp;temperature;humidity
41058;DHT22;66768;48.884;2.258;2023-02-21T00:00:13;9.50;99.90
41058;DHT22;66768;48.884;2.258;2023-02-21T00:02:59;9.50;99.90
41058;DHT22;66768;48.884;2.258;2023-02-21T00:05:43;9.50;99.90
41058;DHT22;66768;48.884;2.258;2023-02-21T00:08:28;9.50;99.90
41058;DHT22;66768;48.884;2.258;2023-02-21T00:11:12;9.40;99.90
41058;DHT22;66768;48.884;2.258;2023-02-21T00:13:56;9.40;99.90
41058;DHT22;66768;48.884;2.258;2023-02-21T00:16:40;9.30;99.90
41058;DHT22;66768;48.884;2.258;2023-02-21T00:19:26;9.20;99.90
41058;DHT22;66768;48.884;2.258;2023-02-21T00:22:10;9.20;99.90
41058;DHT22;66768;48.884;2.258;2023-02-21T00:24:54;9.30;99.90
41058;DHT22;66768;48.884;2.258;2023-02-21T00:27:38;9.20;99.90
41058;DHT22;66768;48.884;2.258;2023-02-21T00:30:23;9.20;99.90
41058;DHT22;66768;48.884;2.258;2023-02-21T00:33:08;9.20;99.90
41058;DHT22;66768;48.884;2.258;2023-02-21T00:35:53;9.20;99.90
41058;DHT22;66768;48.884;2.258;2023-02-21T00:38:38;9.20;99.90
41058;DHT22;66768;48.884;2.258;2023-02-21T00:41:22;9.30;99.90
41058;DHT22;66768;48.884;2.258;2023-02-21T00:44:06;9.20;99.90
41058;DHT22;66768;48.884;2.258;2023-02-21T00:46:51;9.20;99.90
41058;DHT22;66768;48.884;2.258;2023-02-21T00:49:35;9.20;99.90
41058;DHT22;66768;48.884;2.258;2023-02-21T00:52:20;9.20;99.90
41058;DHT22;66768;48.884;2.258;2023-02-21T00:55:05;9.20;99.90
41058;DHT22;66768;48.884;2.258;2023-02-21T00:57:49;9.20;99.90
41058;DHT22;66768;48.884;2.258;2023-02-21T01:00:34;9.20;99.90
41058;DHT22;66768;48.884;2.258;2023-02-21T01:03:18;9.20;99.90
41058;DHT22;66768;48.884;2.258;2023-02-21T01:06:02;9.30;99.90
41058;DHT22;66768;48.884;2.258;2023-02-21T01:08:47;9.30;99.90
41058;DHT22;66768;48.884;2.258;2023-02-21T01:11:32;9.30;99.90
41058;DHT22;66768;48.884;2.258;2023-02-21T01:14:17;9.30;99.90
41058;DHT22;66768;48.884;2.258;2023-02-21T01:17:01;9.20;99.90
41058;DHT22;66768;48.884;2.258;2023-02-21T01:19:46;9.20;99.90
41058;DHT22;66768;48.884;2.258;2023-02-21T01:22:30;9.20;99.90
41058;DHT22;66768;48.884;2.258;2023-02-21T01:25:16;9.20;99.90
41058;DHT22;66768;48.884;2.258;2023-02-21T01:28:00;9.20;99.90
41058;DHT22;66768;48.884;2.258;2023-02-21T01:30:44;9.20;99.90
41058;DHT22;66768;48.884;2.258;2023-02-21T01:33:28;9.20;99.90
41058;DHT22;66768;48.884;2.258;2023-02-21T01:36:13;9.10;99.90
41058;DHT22;66768;48.884;2.258;2023-02-21T01:38:57;9.20;99.90
41058;DHT22;66768;48.884;2.258;2023-02-21T01:41:42;9.20;99.90
41058;DHT22;66768;48.884;2.258;2023-02-21T01:44:33;9.10;99.90
41058;DHT22;66768;48.884;2.258;2023-02-21T01:47:18;9.10;99.90
41058;DHT22;66768;48.884;2.258;2023-02-21T01:50:07;9.10;99.90
41058;DHT22;66768;48.884;2.258;2023-02-21T01:52:53;9.10;99.90
41058;DHT22;66768;48.884;2.258;2023-02-21T01:55:38;9.00;99.90
41058;DHT22;66768;48.884;2.258;2023-02-21T01:58:26;9.00;99.90
41058;DHT22;66768;48.884;2.258;2023-02-21T02:01:19;9.00;99.90
41058;DHT22;66768;48.884;2.258;2023-02-21T02:04:04;8.90;99.90
41058;DHT22;66768;48.884;2.258;2023-02-21T02:06:48;8.80;99.90
41058;DHT22;66768;48.884;2.258;2023-02-21T02:09:33;8.80;99.90
41058;DHT22;66768;48.884;2.258;2023-02-21T02:15:26;8.80;99.90
41058;DHT22;66768;48.884;2.258;2023-02-21T02:18:32;8.90;99.90
41058;DHT22;66768;48.884;2.258;2023-02-21T02:21:38;8.80;99.90
41058;DHT22;66768;48.884;2.258;2023-02-21T02:24:37;8.80;99.90
41058;DHT22;66768;48.884;2.258;2023-02-21T02:27:12;8.80;99.90
41058;DHT22;66768;48.884;2.258;2023-02-21T02:36:03;8.90;99.90
41058;DHT22;66768;48.884;2.258;2023-02-21T02:38:36;8.80;99.90
41058;DHT22;66768;48.884;2.258;2023-02-21T02:41:08;8.80;99.90
41058;DHT22;66768;48.884;2.258;2023-02-21T02:43:42;8.80;99.90
41058;DHT22;66768;48.884;2.258;2023-02-21T02:46:14;8.70;99.90
41058;DHT22;66768;48.884;2.258;2023-02-21T02:48:45;8.80;99.90
41058;DHT22;66768;48.884;2.258;2023-02-21T02:51:15;8.80;99.90
41058;DHT22;66768;48.884;2.258;2023-02-21T02:53:42;8.80;99.90
41058;DHT22;66768;48.884;2.258;2023-02-21T02:56:10;8.80;99.90
41058;DHT22;66768;48.884;2.258;2023-02-21T02:58:42;8.80;99.90
41058;DHT22;66768;48.884;2.258;2023-02-21T03:01:26;8.80;99.90
41058;DHT22;66768;48.884;2.258;2023-02-21T03:04:07;8.70;99.90
41058;DHT22;66768;48.884;2.258;2023-02-21T03:06:46;8.70;99.90
41058;DHT22;66768;48.884;2.258;2023-02-21T03:09:17;8.70;99.90
41058;DHT22;66768;48.884;2.258;2023-02-21T03:11:52;8.70;99.90
41058;DHT22;66768;48.884;2.258;2023-02-21T03:14:25;8.70;99.90
41058;DHT22;66768;48.884;2.258;2023-02-21T03:16:56;8.70;99.90
41058;DHT22;66768;48.884;2.258;2023-02-21T03:19:30;8.70;99.90
41058;DHT22;66768;48.884;2.258;2023-02-21T03:22:00;8.70;99.90
41058;DHT22;66768;48.884;2.258;2023-02-21T03:24:28;8.60;99.90
41058;DHT22;66768;48.884;2.258;2023-02-21T03:26:59;8.70;99.90
41058;DHT22;66768;48.884;2.258;2023-02-21T03:29:28;8.60;99.90
41058;DHT22;66768;48.884;2.258;2023-02-21T03:31:59;8.70;99.90
41058;DHT22;66768;48.884;2.258;2023-02-21T03:34:35;8.60;99.90
41058;DHT22;66768;48.884;2.258;2023-02-21T03:37:04;8.60;99.90
41058;DHT22;66768;48.884;2.258;2023-02-21T03:39:31;8.60;99.90
41058;DHT22;66768;48.884;2.258;2023-02-21T03:41:58;8.50;99.90
41058;DHT22;66768;48.884;2.258;2023-02-21T03:44:25;8.50;99.90
41058;DHT22;66768;48.884;2.258;2023-02-21T03:46:52;8.50;99.90
41058;DHT22;66768;48.884;2.258;2023-02-21T03:49:19;8.50;99.90
41058;DHT22;66768;48.884;2.258;2023-02-21T03:51:45;8.40;99.90
41058;DHT22;66768;48.884;2.258;2023-02-21T03:54:14;8.40;99.90
41058;DHT22;66768;48.884;2.258;2023-02-21T03:56:41;8.50;99.90
41058;DHT22;66768;48.884;2.258;2023-02-21T03:59:08;8.40;99.90
41058;DHT22;66768;48.884;2.258;2023-02-21T04:01:35;8.40;99.90
41058;DHT22;66768;48.884;2.258;2023-02-21T04:04:01;8.40;99.90
41058;DHT22;66768;48.884;2.258;2023-02-21T04:06:29;8.40;99.90
41058;DHT22;66768;48.884;2.258;2023-02-21T04:08:55;8.30;99.90
41058;DHT22;66768;48.884;2.258;2023-02-21T04:11:24;8.20;99.90
41058;DHT22;66768;48.884;2.258;2023-02-21T04:13:51;8.20;99.90
41058;DHT22;66768;48.884;2.258;2023-02-21T04:16:18;8.20;99.90
41058;DHT22;66768;48.884;2.258;2023-02-21T04:18:45;8.20;99.90
41058;DHT22;66768;48.884;2.258;2023-02-21T04:21:15;8.20;99.90
41058;DHT22;66768;48.884;2.258;2023-02-21T04:23:42;8.20;99.90
41058;DHT22;66768;48.884;2.258;2023-02-21T04:26:09;8.20;99.90
41058;DHT22;66768;48.884;2.258;2023-02-21T04:28:37;8.20;99.90
41058;DHT22;66768;48.884;2.258;2023-02-21T04:31:04;8.30;99.90
41058;DHT22;66768;48.884;2.258;2023-02-21T04:33:31;8.20;99.90
41058;DHT22;66768;48.884;2.258;2023-02-21T04:35:58;8.20;99.90
41058;DHT22;66768;48.884;2.258;2023-02-21T04:38:25;8.20;99.90
41058;DHT22;66768;48.884;2.258;2023-02-21T04:40:52;8.20;99.90
41058;DHT22;66768;48.884;2.258;2023-02-21T04:43:19;8.20;99.90
41058;DHT22;66768;48.884;2.258;2023-02-21T04:45:48;8.20;99.90
41058;DHT22;66768;48.884;2.258;2023-02-21T04:48:15;8.10;99.90
41058;DHT22;66768;48.884;2.258;2023-02-21T04:50:42;8.10;99.90
41058;DHT22;66768;48.884;2.258;2023-02-21T04:53:09;8.10;99.90
41058;DHT22;66768;48.884;2.258;2023-02-21T04:55:36;8.10;99.90
41058;DHT22;66768;48.884;2.258;2023-02-21T04:58:03;8.00;99.90
41058;DHT22;66768;48.884;2.258;2023-02-21T05:00:30;8.00;99.90
41058;DHT22;66768;48.884;2.258;2023-02-21T05:02:58;7.90;99.90
41058;DHT22;66768;48.884;2.258;2023-02-21T05:05:25;8.00;99.90
41058;DHT22;66768;48.884;2.258;2023-02-21T05:07:52;8.00;99.90
41058;DHT22;66768;48.884;2.258;2023-02-21T05:10:19;8.00;99.90
41058;DHT22;66768;48.884;2.258;2023-02-21T05:12:46;8.00;99.90
41058;DHT22;66768;48.884;2.258;2023-02-21T05:15:13;8.00;99.90
41058;DHT22;66768;48.884;2.258;2023-02-21T05:17:40;8.00;99.90
41058;DHT22;66768;48.884;2.258;2023-02-21T05:20:09;8.00;99.90
41058;DHT22;66768;48.884;2.258;2023-02-21T05:22:37;8.10;99.90
41058;DHT22;66768;48.884;2.258;2023-02-21T05:25:05;8.10;99.90
41058;DHT22;66768;48.884;2.258;2023-02-21T05:27:32;8.10;99.90
41058;DHT22;66768;48.884;2.258;2023-02-21T05:30:00;8.00;99.90
41058;DHT22;66768;48.884;2.258;2023-02-21T05:32:26;7.90;99.90
41058;DHT22;66768;48.884;2.258;2023-02-21T05:34:54;7.90;99.90
41058;DHT22;66768;48.884;2.258;2023-02-21T05:37:22;7.90;99.90
41058;DHT22;66768;48.884;2.258;2023-02-21T05:39:49;8.00;99.90
41058;DHT22;66768;48.884;2.258;2023-02-21T05:42:16;8.00;99.90
41058;DHT22;66768;48.884;2.258;2023-02-21T05:44:44;8.00;99.90
41058;DHT22;66768;48.884;2.258;2023-02-21T05:47:11;8.00;99.90
41058;DHT22;66768;48.884;2.258;2023-02-21T05:49:38;8.00;99.90
41058;DHT22;66768;48.884;2.258;2023-02-21T05:52:05;8.00;99.90
41058;DHT22;66768;48.884;2.258;2023-02-21T05:54:33;8.00;99.90
41058;DHT22;66768;48.884;2.258;2023-02-21T05:57:00;8.00;99.90
41058;DHT22;66768;48.884;2.258;2023-02-21T05:59:27;8.00;99.90
41058;DHT22;66768;48.884;2.258;2023-02-21T06:01:54;8.00;99.90
41058;DHT22;66768;48.884;2.258;2023-02-21T06:04:21;8.00;99.90
41058;DHT22;66768;48.884;2.258;2023-02-21T06:06:48;8.00;99.90
41058;DHT22;66768;48.884;2.258;2023-02-21T06:09:18;8.00;99.90
41058;DHT22;66768;48.884;2.258;2023-02-21T06:11:46;7.90;99.90
41058;DHT22;66768;48.884;2.258;2023-02-21T06:14:15;7.80;99.90
41058;DHT22;66768;48.884;2.258;2023-02-21T06:16:42;7.80;99.90
41058;DHT22;66768;48.884;2.258;2023-02-21T06:19:10;7.70;99.90
41058;DHT22;66768;48.884;2.258;2023-02-21T06:21:37;7.70;99.90
41058;DHT22;66768;48.884;2.258;2023-02-21T06:24:06;7.70;99.90
41058;DHT22;66768;48.884;2.258;2023-02-21T06:26:33;7.70;99.90
41058;DHT22;66768;48.884;2.258;2023-02-21T06:29:01;7.60;99.90
41058;DHT22;66768;48.884;2.258;2023-02-21T06:31:28;7.70;99.90
41058;DHT22;66768;48.884;2.258;2023-02-21T06:33:55;7.80;99.90
41058;DHT22;66768;48.884;2.258;2023-02-21T06:36:25;7.70;99.90
41058;DHT22;66768;48.884;2.258;2023-02-21T06:38:53;7.70;99.90
41058;DHT22;66768;48.884;2.258;2023-02-21T06:41:24;7.70;99.90
41058;DHT22;66768;48.884;2.258;2023-02-21T06:43:52;7.80;99.90
41058;DHT22;66768;48.884;2.258;2023-02-21T06:46:22;7.80;99.90
41058;DHT22;66768;48.884;2.258;2023-02-21T06:48:49;7.90;99.90
41058;DHT22;66768;48.884;2.258;2023-02-21T06:51:17;7.90;99.90
41058;DHT22;66768;48.884;2.258;2023-02-21T06:53:48;7.90;99.90
41058;DHT22;66768;48.884;2.258;2023-02-21T06:56:15;7.90;99.90
41058;DHT22;66768;48.884;2.258;2023-02-21T06:58:42;7.90;99.90
41058;DHT22;66768;48.884;2.258;2023-02-21T07:01:09;8.00;99.90
41058;DHT22;66768;48.884;2.258;2023-02-21T07:03:39;7.80;99.90
41058;DHT22;66768;48.884;2.258;2023-02-21T07:06:07;7.90;99.90
41058;DHT22;66768;48.884;2.258;2023-02-21T07:08:34;7.90;99.90
41058;DHT22;66768;48.884;2.258;2023-02-21T07:11:01;7.90;99.90
41058;DHT22;66768;48.884;2.258;2023-02-21T07:13:28;7.90;99.90
41058;DHT22;66768;48.884;2.258;2023-02-21T07:15:55;8.00;99.90
41058;DHT22;66768;48.884;2.258;2023-02-21T07:18:22;7.90;99.90
41058;DHT22;66768;48.884;2.258;2023-02-21T07:20:50;7.90;99.90
41058;DHT22;66768;48.884;2.258;2023-02-21T07:23:17;7.90;99.90
41058;DHT22;66768;48.884;2.258;2023-02-21T07:25:44;8.00;99.90
41058;DHT22;66768;48.884;2.258;2023-02-21T07:28:11;7.90;99.90
41058;DHT22;66768;48.884;2.258;2023-02-21T07:30:38;7.90;99.90
41058;DHT22;66768;48.884;2.258;2023-02-21T07:33:05;7.90;99.90
41058;DHT22;66768;48.884;2.258;2023-02-21T07:35:32;7.90;99.90
41058;DHT22;66768;48.884;2.258;2023-02-21T07:38:00;7.80;99.90
41058;DHT22;66768;48.884;2.258;2023-02-21T07:40:27;7.90;99.90
41058;DHT22;66768;48.884;2.258;2023-02-21T07:42:54;7.90;99.90
41058;DHT22;66768;48.884;2.258;2023-02-21T07:45:21;7.90;99.90
41058;DHT22;66768;48.884;2.258;2023-02-21T07:47:48;7.90;99.90
41058;DHT22;66768;48.884;2.258;2023-02-21T07:50:18;8.10;99.90
41058;DHT22;66768;48.884;2.258;2023-02-21T07:52:47;8.10;99.90
41058;DHT22;66768;48.884;2.258;2023-02-21T07:55:16;8.20;99.90
41058;DHT22;66768;48.884;2.258;2023-02-21T07:57:44;8.20;99.90
41058;DHT22;66768;48.884;2.258;2023-02-21T08:00:11;8.20;99.90
41058;DHT22;66768;48.884;2.258;2023-02-21T08:02:38;8.30;99.90
41058;DHT22;66768;48.884;2.258;2023-02-21T08:05:06;8.20;99.90
41058;DHT22;66768;48.884;2.258;2023-02-21T08:07:33;8.20;99.90
41058;DHT22;66768;48.884;2.258;2023-02-21T08:10:00;8.20;99.90
41058;DHT22;66768;48.884;2.258;2023-02-21T08:12:28;8.20;99.90
41058;DHT22;66768;48.884;2.258;2023-02-21T08:14:55;8.20;99.90
41058;DHT22;66768;48.884;2.258;2023-02-21T08:17:22;8.20;99.90
41058;DHT22;66768;48.884;2.258;2023-02-21T08:19:49;8.30;99.90
41058;DHT22;66768;48.884;2.258;2023-02-21T08:22:16;8.30;99.90
41058;DHT22;66768;48.884;2.258;2023-02-21T08:24:43;8.40;99.90
41058;DHT22;66768;48.884;2.258;2023-02-21T08:27:11;8.50;99.90
41058;DHT22;66768;48.884;2.258;2023-02-21T08:29:39;8.50;99.90
41058;DHT22;66768;48.884;2.258;2023-02-21T08:32:06;8.60;99.90
41058;DHT22;66768;48.884;2.258;2023-02-21T08:34:33;8.60;99.90
41058;DHT22;66768;48.884;2.258;2023-02-21T08:37:00;8.70;99.90
41058;DHT22;66768;48.884;2.258;2023-02-21T08:39:31;8.70;99.90
41058;DHT22;66768;48.884;2.258;2023-02-21T08:41:58;8.70;99.90
41058;DHT22;66768;48.884;2.258;2023-02-21T08:44:25;8.70;99.90
41058;DHT22;66768;48.884;2.258;2023-02-21T08:46:53;8.70;99.90
41058;DHT22;66768;48.884;2.258;2023-02-21T08:49:20;8.80;99.90
41058;DHT22;66768;48.884;2.258;2023-02-21T08:51:47;8.80;99.90
41058;DHT22;66768;48.884;2.258;2023-02-21T08:54:14;8.80;99.90
41058;DHT22;66768;48.884;2.258;2023-02-21T08:56:40;8.90;99.90
41058;DHT22;66768;48.884;2.258;2023-02-21T08:59:07;8.90;99.90
41058;DHT22;66768;48.884;2.258;2023-02-21T09:01:35;9.00;99.90
41058;DHT22;66768;48.884;2.258;2023-02-21T09:04:04;9.10;99.90
41058;DHT22;66768;48.884;2.258;2023-02-21T09:06:31;9.10;99.90
41058;DHT22;66768;48.884;2.258;2023-02-21T09:08:58;9.10;99.90
41058;DHT22;66768;48.884;2.258;2023-02-21T09:11:25;9.20;99.90
41058;DHT22;66768;48.884;2.258;2023-02-21T09:13:52;9.20;99.90
41058;DHT22;66768;48.884;2.258;2023-02-21T09:16:20;9.30;99.90
41058;DHT22;66768;48.884;2.258;2023-02-21T09:18:53;9.40;99.90
41058;DHT22;66768;48.884;2.258;2023-02-21T09:21:22;9.40;99.90
41058;DHT22;66768;48.884;2.258;2023-02-21T09:23:52;9.50;99.90
41058;DHT22;66768;48.884;2.258;2023-02-21T09:26:19;9.60;99.90
41058;DHT22;66768;48.884;2.258;2023-02-21T09:28:48;9.50;99.90
41058;DHT22;66768;48.884;2.258;2023-02-21T09:31:15;9.50;99.90
41058;DHT22;66768;48.884;2.258;2023-02-21T09:33:43;9.60;99.90
41058;DHT22;66768;48.884;2.258;2023-02-21T09:36:11;9.70;99.90
41058;DHT22;66768;48.884;2.258;2023-02-21T09:38:39;9.70;99.90
41058;DHT22;66768;48.884;2.258;2023-02-21T09:41:09;9.70;99.90
41058;DHT22;66768;48.884;2.258;2023-02-21T09:43:39;9.80;99.90
41058;DHT22;66768;48.884;2.258;2023-02-21T09:46:11;9.80;99.90
41058;DHT22;66768;48.884;2.258;2023-02-21T09:48:39;9.90;99.90
41058;DHT22;66768;48.884;2.258;2023-02-21T09:51:08;9.90;99.90
41058;DHT22;66768;48.884;2.258;2023-02-21T09:53:41;9.90;99.90
41058;DHT22;66768;48.884;2.258;2023-02-21T09:56:12;10.10;99.90
41058;DHT22;66768;48.884;2.258;2023-02-21T09:58:41;10.10;99.90
41058;DHT22;66768;48.884;2.258;2023-02-21T10:01:19;10.10;99.90
41058;DHT22;66768;48.884;2.258;2023-02-21T10:03:51;10.10;99.90
41058;DHT22;66768;48.884;2.258;2023-02-21T10:06:29;10.20;99.90
41058;DHT22;66768;48.884;2.258;2023-02-21T10:09:03;10.10;99.90
41058;DHT22;66768;48.884;2.258;2023-02-21T10:11:40;10.20;99.90
41058;DHT22;66768;48.884;2.258;2023-02-21T10:14:17;10.20;99.90
41058;DHT22;66768;48.884;2.258;2023-02-21T10:16:50;10.30;99.90
41058;DHT22;66768;48.884;2.258;2023-02-21T10:19:25;10.30;99.90
41058;DHT22;66768;48.884;2.258;2023-02-21T10:21:57;10.40;99.90
41058;DHT22;66768;48.884;2.258;2023-02-21T10:24:27;10.40;99.90
41058;DHT22;66768;48.884;2.258;2023-02-21T10:26:59;10.50;99.90
41058;DHT22;66768;48.884;2.258;2023-02-21T10:29:35;10.50;99.90
41058;DHT22;66768;48.884;2.258;2023-02-21T10:32:03;10.60;99.90
41058;DHT22;66768;48.884;2.258;2023-02-21T10:34:32;10.60;99.90
41058;DHT22;66768;48.884;2.258;2023-02-21T10:37:04;10.60;99.90
41058;DHT22;66768;48.884;2.258;2023-02-21T10:39:40;10.60;99.90
41058;DHT22;66768;48.884;2.258;2023-02-21T10:42:13;10.70;99.90
41058;DHT22;66768;48.884;2.258;2023-02-21T10:44:44;10.70;99.90
41058;DHT22;66768;48.884;2.258;2023-02-21T10:47:17;10.80;99.90
41058;DHT22;66768;48.884;2.258;2023-02-21T10:49:49;10.80;99.90
41058;DHT22;66768;48.884;2.258;2023-02-21T10:52:18;10.80;99.90
41058;DHT22;66768;48.884;2.258;2023-02-21T10:54:59;10.80;99.90
41058;DHT22;66768;48.884;2.258;2023-02-21T10:57:27;10.90;99.90
41058;DHT22;66768;48.884;2.258;2023-02-21T10:59:56;11.00;99.90
41058;DHT22;66768;48.884;2.258;2023-02-21T11:02:32;11.00;99.90
41058;DHT22;66768;48.884;2.258;2023-02-21T11:05:09;11.00;99.90
41058;DHT22;66768;48.884;2.258;2023-02-21T11:07:37;11.10;99.90
41058;DHT22;66768;48.884;2.258;2023-02-21T11:10:26;11.10;99.90
41058;DHT22;66768;48.884;2.258;2023-02-21T11:13:05;11.20;99.90
41058;DHT22;66768;48.884;2.258;2023-02-21T11:15:32;11.30;99.90
41058;DHT22;66768;48.884;2.258;2023-02-21T11:18:05;11.30;99.90
41058;DHT22;66768;48.884;2.258;2023-02-21T11:20:32;11.30;99.90
41058;DHT22;66768;48.884;2.258;2023-02-21T11:22:59;11.40;99.90
41058;DHT22;66768;48.884;2.258;2023-02-21T11:25:29;11.40;99.90
41058;DHT22;66768;48.884;2.258;2023-02-21T11:28:00;11.40;99.90
41058;DHT22;66768;48.884;2.258;2023-02-21T11:30:29;11.50;99.90
41058;DHT22;66768;48.884;2.258;2023-02-21T11:32:58;11.60;99.90
41058;DHT22;66768;48.884;2.258;2023-02-21T11:35:27;11.70;99.90
41058;DHT22;66768;48.884;2.258;2023-02-21T11:37:56;11.80;99.90
41058;DHT22;66768;48.884;2.258;2023-02-21T11:40:27;11.90;99.90
41058;DHT22;66768;48.884;2.258;2023-02-21T11:43:20;11.90;99.90
41058;DHT22;66768;48.884;2.258;2023-02-21T11:48:38;12.00;99.90
41058;DHT22;66768;48.884;2.258;2023-02-21T11:51:25;12.10;99.90
41058;DHT22;66768;48.884;2.258;2023-02-21T11:53:52;12.20;99.90
41058;DHT22;66768;48.884;2.258;2023-02-21T11:56:35;12.20;99.90
41058;DHT22;66768;48.884;2.258;2023-02-21T11:59:14;12.30;99.90
41058;DHT22;66768;48.884;2.258;2023-02-21T12:01:56;12.40;99.90
41058;DHT22;66768;48.884;2.258;2023-02-21T12:04:36;12.50;99.90
41058;DHT22;66768;48.884;2.258;2023-02-21T12:07:16;12.60;99.90
41058;DHT22;66768;48.884;2.258;2023-02-21T12:09:49;12.60;99.90
41058;DHT22;66768;48.884;2.258;2023-02-21T12:12:31;12.60;99.90
41058;DHT22;66768;48.884;2.258;2023-02-21T12:15:07;12.70;99.90
41058;DHT22;66768;48.884;2.258;2023-02-21T12:17:56;12.70;99.90
41058;DHT22;66768;48.884;2.258;2023-02-21T12:23:20;12.80;99.90
41058;DHT22;66768;48.884;2.258;2023-02-21T12:26:05;12.90;99.90
41058;DHT22;66768;48.884;2.258;2023-02-21T12:28:46;12.90;99.90
41058;DHT22;66768;48.884;2.258;2023-02-21T12:31:28;12.90;99.90
41058;DHT22;66768;48.884;2.258;2023-02-21T12:34:12;13.00;99.90
41058;DHT22;66768;48.884;2.258;2023-02-21T12:36:49;13.00;99.90
41058;DHT22;66768;48.884;2.258;2023-02-21T12:39:30;13.10;99.90
41058;DHT22;66768;48.884;2.258;2023-02-21T12:42:15;13.10;99.90
41058;DHT22;66768;48.884;2.258;2023-02-21T12:44:55;13.20;99.90
41058;DHT22;66768;48.884;2.258;2023-02-21T12:47:31;13.20;99.90
41058;DHT22;66768;48.884;2.258;2023-02-21T12:50:02;13.20;99.90
41058;DHT22;66768;48.884;2.258;2023-02-21T12:52:34;13.20;99.80
41058;DHT22;66768;48.884;2.258;2023-02-21T12:55:06;13.20;99.80
41058;DHT22;66768;48.884;2.258;2023-02-21T12:57:49;13.30;99.80
41058;DHT22;66768;48.884;2.258;2023-02-21T13:00:21;13.30;99.80
41058;DHT22;66768;48.884;2.258;2023-02-21T13:02:57;13.30;99.50
41058;DHT22;66768;48.884;2.258;2023-02-21T13:05:32;13.30;99.50
41058;DHT22;66768;48.884;2.258;2023-02-21T13:08:05;13.40;99.50
41058;DHT22;66768;48.884;2.258;2023-02-21T13:10:47;13.40;99.40
41058;DHT22;66768;48.884;2.258;2023-02-21T13:13:19;13.40;99.40
41058;DHT22;66768;48.884;2.258;2023-02-21T13:15:48;13.50;99.20
41058;DHT22;66768;48.884;2.258;2023-02-21T13:18:23;13.50;99.30
41058;DHT22;66768;48.884;2.258;2023-02-21T13:20:55;13.50;99.30
41058;DHT22;66768;48.884;2.258;2023-02-21T13:23:41;13.50;99.30
41058;DHT22;66768;48.884;2.258;2023-02-21T13:26:51;13.50;99.20
41058;DHT22;66768;48.884;2.258;2023-02-21T13:29:23;13.50;99.30
41058;DHT22;66768;48.884;2.258;2023-02-21T13:31:59;13.60;99.30
41058;DHT22;66768;48.884;2.258;2023-02-21T13:34:30;13.60;99.40
41058;DHT22;66768;48.884;2.258;2023-02-21T13:37:03;13.60;99.40
41058;DHT22;66768;48.884;2.258;2023-02-21T13:39:32;13.60;99.40
41058;DHT22;66768;48.884;2.258;2023-02-21T13:42:05;13.70;99.40
41058;DHT22;66768;48.884;2.258;2023-02-21T13:44:36;13.70;99.30
41058;DHT22;66768;48.884;2.258;2023-02-21T13:47:08;13.80;99.20
41058;DHT22;66768;48.884;2.258;2023-02-21T13:49:48;13.80;99.20
41058;DHT22;66768;48.884;2.258;2023-02-21T13:55:29;13.80;99.00
41058;DHT22;66768;48.884;2.258;2023-02-21T14:01:41;13.90;98.90
41058;DHT22;66768;48.884;2.258;2023-02-21T14:07:41;14.00;99.00
41058;DHT22;66768;48.884;2.258;2023-02-21T14:13:16;14.00;98.70
41058;DHT22;66768;48.884;2.258;2023-02-21T14:15:45;14.10;98.70
41058;DHT22;66768;48.884;2.258;2023-02-21T14:18:24;14.10;98.70
41058;DHT22;66768;48.884;2.258;2023-02-21T14:20:54;14.10;98.60
41058;DHT22;66768;48.884;2.258;2023-02-21T14:23:30;14.20;98.40
41058;DHT22;66768;48.884;2.258;2023-02-21T14:25:59;14.20;98.40
41058;DHT22;66768;48.884;2.258;2023-02-21T14:28:50;14.20;98.40
41058;DHT22;66768;48.884;2.258;2023-02-21T14:31:48;14.20;98.20
41058;DHT22;66768;48.884;2.258;2023-02-21T14:34:20;14.20;98.10
41058;DHT22;66768;48.884;2.258;2023-02-21T14:36:49;14.30;97.90
41058;DHT22;66768;48.884;2.258;2023-02-21T14:39:18;14.30;97.90
41058;DHT22;66768;48.884;2.258;2023-02-21T14:42:16;14.30;97.60
41058;DHT22;66768;48.884;2.258;2023-02-21T14:44:55;14.30;97.60
41058;DHT22;66768;48.884;2.258;2023-02-21T14:47:40;14.40;97.50
41058;DHT22;66768;48.884;2.258;2023-02-21T14:50:19;14.40;97.40
41058;DHT22;66768;48.884;2.258;2023-02-21T14:53:30;14.50;97.30
41058;DHT22;66768;48.884;2.258;2023-02-21T14:56:15;14.50;97.20
41058;DHT22;66768;48.884;2.258;2023-02-21T14:59:04;14.60;97.00
41058;DHT22;66768;48.884;2.258;2023-02-21T15:01:41;14.60;97.00
41058;DHT22;66768;48.884;2.258;2023-02-21T15:04:16;14.70;96.80
41058;DHT22;66768;48.884;2.258;2023-02-21T15:06:54;14.60;96.70
41058;DHT22;66768;48.884;2.258;2023-02-21T15:09:23;14.60;96.90
41058;DHT22;66768;48.884;2.258;2023-02-21T15:11:51;14.60;97.00
41058;DHT22;66768;48.884;2.258;2023-02-21T15:14:21;14.60;96.80
41058;DHT22;66768;48.884;2.258;2023-02-21T15:16:50;14.60;96.80
41058;DHT22;66768;48.884;2.258;2023-02-21T15:19:21;14.60;96.90
41058;DHT22;66768;48.884;2.258;2023-02-21T15:22:05;14.60;96.90
41058;DHT22;66768;48.884;2.258;2023-02-21T15:24:32;14.60;96.60
41058;DHT22;66768;48.884;2.258;2023-02-21T15:27:09;14.60;96.70
41058;DHT22;66768;48.884;2.258;2023-02-21T15:29:36;14.60;96.70
41058;DHT22;66768;48.884;2.258;2023-02-21T15:32:04;14.60;96.60
41058;DHT22;66768;48.884;2.258;2023-02-21T15:34:35;14.60;96.40
41058;DHT22;66768;48.884;2.258;2023-02-21T15:37:07;14.60;96.40
41058;DHT22;66768;48.884;2.258;2023-02-21T15:39:40;14.60;96.30
41058;DHT22;66768;48.884;2.258;2023-02-21T15:42:13;14.70;96.10
41058;DHT22;66768;48.884;2.258;2023-02-21T15:44:44;14.70;96.10
41058;DHT22;66768;48.884;2.258;2023-02-21T15:47:15;14.80;95.90
41058;DHT22;66768;48.884;2.258;2023-02-21T15:49:44;14.80;96.00
41058;DHT22;66768;48.884;2.258;2023-02-21T15:52:26;14.80;96.00
41058;DHT22;66768;48.884;2.258;2023-02-21T15:55:12;14.80;95.90
41058;DHT22;66768;48.884;2.258;2023-02-21T15:57:42;14.80;96.00
41058;DHT22;66768;48.884;2.258;2023-02-21T16:00:18;14.80;96.00
41058;DHT22;66768;48.884;2.258;2023-02-21T16:02:46;14.90;96.00
41058;DHT22;66768;48.884;2.258;2023-02-21T16:05:29;14.90;96.00
41058;DHT22;66768;48.884;2.258;2023-02-21T16:08:00;14.90;96.10
41058;DHT22;66768;48.884;2.258;2023-02-21T16:10:29;14.90;96.10
41058;DHT22;66768;48.884;2.258;2023-02-21T16:12:59;14.80;96.30
41058;DHT22;66768;48.884;2.258;2023-02-21T16:15:28;14.80;96.40
41058;DHT22;66768;48.884;2.258;2023-02-21T16:17:57;14.90;96.40
41058;DHT22;66768;48.884;2.258;2023-02-21T16:20:28;14.90;96.50
41058;DHT22;66768;48.884;2.258;2023-02-21T16:23:22;14.90;96.50
41058;DHT22;66768;48.884;2.258;2023-02-21T16:25:58;14.90;96.60
41058;DHT22;66768;48.884;2.258;2023-02-21T16:28:27;14.90;96.80
41058;DHT22;66768;48.884;2.258;2023-02-21T16:30:55;14.90;96.80
41058;DHT22;66768;48.884;2.258;2023-02-21T16:33:25;14.90;96.90
41058;DHT22;66768;48.884;2.258;2023-02-21T16:35:53;14.80;96.90
41058;DHT22;66768;48.884;2.258;2023-02-21T16:38:22;14.80;97.00
41058;DHT22;66768;48.884;2.258;2023-02-21T16:40:49;14.80;97.00
41058;DHT22;66768;48.884;2.258;2023-02-21T16:43:19;14.80;97.00
41058;DHT22;66768;48.884;2.258;2023-02-21T16:45:48;14.80;97.10